sensor_id;sensor_type;location;lat;lon;timestamp;temperature;humidity
35206;DHT22;46555;45.620;13.796;2022-08-14T00:02:02;20.50;93.30
35206;DHT22;46555;45.620;13.796;2022-08-14T00:04:32;20.40;93.30
35206;DHT22;46555;45.620;13.796;2022-08-14T00:06:58;20.40;93.60
35206;DHT22;46555;45.620;13.796;2022-08-14T00:09:23;20.30;93.90
35206;DHT22;46555;45.620;13.796;2022-08-14T00:11:49;20.30;94.20
35206;DHT22;46555;45.620;13.796;2022-08-14T00:14:15;20.30;94.60
35206;DHT22;46555;45.620;13.796;2022-08-14T00:16:41;20.30;94.10
35206;DHT22;46555;45.620;13.796;2022-08-14T00:19:08;20.30;94.00
35206;DHT22;46555;45.620;13.796;2022-08-14T00:21:34;20.30;94.30
35206;DHT22;46555;45.620;13.796;2022-08-14T00:23:59;20.30;94.00
35206;DHT22;46555;45.620;13.796;2022-08-14T00:26:25;20.30;94.20
35206;DHT22;46555;45.620;13.796;2022-08-14T00:28:52;20.20;94.30
35206;DHT22;46555;45.620;13.796;2022-08-14T00:31:18;20.20;94.30
35206;DHT22;46555;45.620;13.796;2022-08-14T00:33:44;20.20;94.40
35206;DHT22;46555;45.620;13.796;2022-08-14T00:36:10;20.10;94.60
35206;DHT22;46555;45.620;13.796;2022-08-14T00:38:36;20.10;94.70
35206;DHT22;46555;45.620;13.796;2022-08-14T00:41:03;20.10;94.70
35206;DHT22;46555;45.620;13.796;2022-08-14T00:43:32;20.00;94.60
35206;DHT22;46555;45.620;13.796;2022-08-14T00:46:04;20.00;94.60
35206;DHT22;46555;45.620;13.796;2022-08-14T00:48:30;20.00;94.70
35206;DHT22;46555;45.620;13.796;2022-08-14T00:50:56;20.00;94.70
35206;DHT22;46555;45.620;13.796;2022-08-14T00:53:22;20.00;94.70
35206;DHT22;46555;45.620;13.796;2022-08-14T00:55:50;19.90;94.80
35206;DHT22;46555;45.620;13.796;2022-08-14T00:58:16;19.90;94.90
35206;DHT22;46555;45.620;13.796;2022-08-14T01:01:06;19.90;95.00
35206;DHT22;46555;45.620;13.796;2022-08-14T01:03:36;19.90;95.10
35206;DHT22;46555;45.620;13.796;2022-08-14T01:06:06;19.80;95.20
35206;DHT22;46555;45.620;13.796;2022-08-14T01:08:33;19.80;95.30
35206;DHT22;46555;45.620;13.796;2022-08-14T01:10:59;19.80;95.40
35206;DHT22;46555;45.620;13.796;2022-08-14T01:13:34;19.80;95.60
35206;DHT22;46555;45.620;13.796;2022-08-14T01:16:03;19.70;95.60
35206;DHT22;46555;45.620;13.796;2022-08-14T01:18:31;19.80;95.80
35206;DHT22;46555;45.620;13.796;2022-08-14T01:21:23;19.80;95.70
35206;DHT22;46555;45.620;13.796;2022-08-14T01:23:50;19.70;95.90
35206;DHT22;46555;45.620;13.796;2022-08-14T01:26:19;19.70;96.00
35206;DHT22;46555;45.620;13.796;2022-08-14T01:28:49;19.60;96.00
35206;DHT22;46555;45.620;13.796;2022-08-14T01:31:21;19.60;96.10
35206;DHT22;46555;45.620;13.796;2022-08-14T01:33:49;19.60;96.20
35206;DHT22;46555;45.620;13.796;2022-08-14T01:36:16;19.60;96.30
35206;DHT22;46555;45.620;13.796;2022-08-14T01:38:43;19.60;96.40
35206;DHT22;46555;45.620;13.796;2022-08-14T01:41:17;19.60;96.50
35206;DHT22;46555;45.620;13.796;2022-08-14T01:43:59;19.50;96.50
35206;DHT22;46555;45.620;13.796;2022-08-14T01:46:28;19.50;96.60
35206;DHT22;46555;45.620;13.796;2022-08-14T01:48:54;19.50;96.70
35206;DHT22;46555;45.620;13.796;2022-08-14T01:51:22;19.40;97.10
35206;DHT22;46555;45.620;13.796;2022-08-14T01:53:51;19.40;96.80
35206;DHT22;46555;45.620;13.796;2022-08-14T01:56:18;19.40;96.90
35206;DHT22;46555;45.620;13.796;2022-08-14T01:58:48;19.40;97.00
35206;DHT22;46555;45.620;13.796;2022-08-14T02:01:23;19.40;97.00
35206;DHT22;46555;45.620;13.796;2022-08-14T02:03:49;19.40;97.00
35206;DHT22;46555;45.620;13.796;2022-08-14T02:06:14;19.40;97.10
35206;DHT22;46555;45.620;13.796;2022-08-14T02:08:41;19.40;97.10
35206;DHT22;46555;45.620;13.796;2022-08-14T02:11:09;19.40;97.10
35206;DHT22;46555;45.620;13.796;2022-08-14T02:13:42;19.40;97.00
35206;DHT22;46555;45.620;13.796;2022-08-14T02:16:16;19.40;97.00
35206;DHT22;46555;45.620;13.796;2022-08-14T02:18:42;19.40;97.10
35206;DHT22;46555;45.620;13.796;2022-08-14T02:21:09;19.40;97.20
35206;DHT22;46555;45.620;13.796;2022-08-14T02:23:36;19.30;97.30
35206;DHT22;46555;45.620;13.796;2022-08-14T02:26:14;19.30;97.40
35206;DHT22;46555;45.620;13.796;2022-08-14T02:28:40;19.20;97.40
35206;DHT22;46555;45.620;13.796;2022-08-14T02:31:05;19.20;97.60
35206;DHT22;46555;45.620;13.796;2022-08-14T02:33:33;19.20;97.70
35206;DHT22;46555;45.620;13.796;2022-08-14T02:36:01;19.20;97.70
35206;DHT22;46555;45.620;13.796;2022-08-14T02:38:28;19.20;97.80
35206;DHT22;46555;45.620;13.796;2022-08-14T02:40:58;19.20;97.90
35206;DHT22;46555;45.620;13.796;2022-08-14T02:43:24;19.20;97.90
35206;DHT22;46555;45.620;13.796;2022-08-14T02:45:51;19.20;98.00
35206;DHT22;46555;45.620;13.796;2022-08-14T02:48:17;19.20;98.00
35206;DHT22;46555;45.620;13.796;2022-08-14T02:50:42;19.20;98.00
35206;DHT22;46555;45.620;13.796;2022-08-14T02:53:08;19.20;98.10
35206;DHT22;46555;45.620;13.796;2022-08-14T02:55:36;19.20;98.10
35206;DHT22;46555;45.620;13.796;2022-08-14T02:58:05;19.20;98.10
35206;DHT22;46555;45.620;13.796;2022-08-14T03:00:33;19.20;98.30
35206;DHT22;46555;45.620;13.796;2022-08-14T03:03:00;19.20;98.30
35206;DHT22;46555;45.620;13.796;2022-08-14T03:05:27;19.20;98.40
35206;DHT22;46555;45.620;13.796;2022-08-14T03:08:10;19.10;98.30
35206;DHT22;46555;45.620;13.796;2022-08-14T03:10:37;19.10;98.40
35206;DHT22;46555;45.620;13.796;2022-08-14T03:13:03;19.10;98.40
35206;DHT22;46555;45.620;13.796;2022-08-14T03:15:32;19.10;98.50
35206;DHT22;46555;45.620;13.796;2022-08-14T03:18:12;19.10;98.60
35206;DHT22;46555;45.620;13.796;2022-08-14T03:20:38;19.10;98.60
35206;DHT22;46555;45.620;13.796;2022-08-14T03:23:05;19.10;98.70
35206;DHT22;46555;45.620;13.796;2022-08-14T03:25:33;19.00;98.80
35206;DHT22;46555;45.620;13.796;2022-08-14T03:28:07;19.00;98.90
35206;DHT22;46555;45.620;13.796;2022-08-14T03:30:34;19.00;98.90
35206;DHT22;46555;45.620;13.796;2022-08-14T03:33:00;19.00;99.00
35206;DHT22;46555;45.620;13.796;2022-08-14T03:35:27;19.00;99.10
35206;DHT22;46555;45.620;13.796;2022-08-14T03:37:54;19.00;99.20
35206;DHT22;46555;45.620;13.796;2022-08-14T03:40:21;19.00;99.30
35206;DHT22;46555;45.620;13.796;2022-08-14T03:42:49;19.00;99.40
35206;DHT22;46555;45.620;13.796;2022-08-14T03:45:15;19.00;99.40
35206;DHT22;46555;45.620;13.796;2022-08-14T03:47:41;19.00;99.40
35206;DHT22;46555;45.620;13.796;2022-08-14T03:50:08;19.00;99.50
35206;DHT22;46555;45.620;13.796;2022-08-14T03:52:39;19.00;99.60
35206;DHT22;46555;45.620;13.796;2022-08-14T03:55:10;19.00;99.70
35206;DHT22;46555;45.620;13.796;2022-08-14T03:57:38;19.00;99.70
35206;DHT22;46555;45.620;13.796;2022-08-14T04:00:08;18.90;99.80
35206;DHT22;46555;45.620;13.796;2022-08-14T04:02:36;18.90;99.90
35206;DHT22;46555;45.620;13.796;2022-08-14T04:05:07;18.90;99.90
35206;DHT22;46555;45.620;13.796;2022-08-14T04:07:33;18.90;99.90
35206;DHT22;46555;45.620;13.796;2022-08-14T04:09:59;18.90;99.90
35206;DHT22;46555;45.620;13.796;2022-08-14T04:12:26;18.80;99.90
35206;DHT22;46555;45.620;13.796;2022-08-14T04:14:52;18.90;99.90
35206;DHT22;46555;45.620;13.796;2022-08-14T04:17:19;18.80;99.90
35206;DHT22;46555;45.620;13.796;2022-08-14T04:19:45;18.90;99.90
35206;DHT22;46555;45.620;13.796;2022-08-14T04:22:12;18.90;99.90
35206;DHT22;46555;45.620;13.796;2022-08-14T04:24:39;18.90;99.90
35206;DHT22;46555;45.620;13.796;2022-08-14T04:27:09;18.90;99.90
35206;DHT22;46555;45.620;13.796;2022-08-14T04:29:40;18.90;99.90
35206;DHT22;46555;45.620;13.796;2022-08-14T04:32:08;19.00;99.90
35206;DHT22;46555;45.620;13.796;2022-08-14T04:34:35;19.00;99.90
35206;DHT22;46555;45.620;13.796;2022-08-14T04:37:04;19.00;99.90
35206;DHT22;46555;45.620;13.796;2022-08-14T04:39:49;19.00;99.90
35206;DHT22;46555;45.620;13.796;2022-08-14T04:42:33;19.10;99.90
35206;DHT22;46555;45.620;13.796;2022-08-14T04:45:21;19.10;99.90
35206;DHT22;46555;45.620;13.796;2022-08-14T04:47:50;19.10;99.90
35206;DHT22;46555;45.620;13.796;2022-08-14T04:50:35;19.20;99.90
35206;DHT22;46555;45.620;13.796;2022-08-14T04:53:01;19.20;99.90
35206;DHT22;46555;45.620;13.796;2022-08-14T04:55:28;19.30;99.90
35206;DHT22;46555;45.620;13.796;2022-08-14T04:57:54;19.40;99.90
35206;DHT22;46555;45.620;13.796;2022-08-14T05:00:20;19.40;99.90
35206;DHT22;46555;45.620;13.796;2022-08-14T05:02:47;19.50;99.90
35206;DHT22;46555;45.620;13.796;2022-08-14T05:05:13;19.50;99.90
35206;DHT22;46555;45.620;13.796;2022-08-14T05:07:39;19.60;99.90
35206;DHT22;46555;45.620;13.796;2022-08-14T05:10:07;19.70;99.90
35206;DHT22;46555;45.620;13.796;2022-08-14T05:12:33;19.70;99.90
35206;DHT22;46555;45.620;13.796;2022-08-14T05:14:58;19.80;99.90
35206;DHT22;46555;45.620;13.796;2022-08-14T05:17:24;19.90;99.90
35206;DHT22;46555;45.620;13.796;2022-08-14T05:19:51;19.90;99.70
35206;DHT22;46555;45.620;13.796;2022-08-14T05:22:18;20.00;99.50
35206;DHT22;46555;45.620;13.796;2022-08-14T05:24:48;20.10;99.40
35206;DHT22;46555;45.620;13.796;2022-08-14T05:27:14;20.10;99.30
35206;DHT22;46555;45.620;13.796;2022-08-14T05:29:40;20.10;99.30
35206;DHT22;46555;45.620;13.796;2022-08-14T05:32:09;20.20;99.20
35206;DHT22;46555;45.620;13.796;2022-08-14T05:34:35;20.20;99.20
35206;DHT22;46555;45.620;13.796;2022-08-14T05:37:02;20.30;98.80
35206;DHT22;46555;45.620;13.796;2022-08-14T05:39:28;20.40;98.80
35206;DHT22;46555;45.620;13.796;2022-08-14T05:41:54;20.40;98.40
35206;DHT22;46555;45.620;13.796;2022-08-14T05:44:21;20.50;98.20
35206;DHT22;46555;45.620;13.796;2022-08-14T05:46:47;20.50;98.20
35206;DHT22;46555;45.620;13.796;2022-08-14T05:49:13;20.60;98.20
35206;DHT22;46555;45.620;13.796;2022-08-14T05:51:39;20.70;98.30
35206;DHT22;46555;45.620;13.796;2022-08-14T05:54:06;20.80;98.30
35206;DHT22;46555;45.620;13.796;2022-08-14T05:56:32;20.80;98.10
35206;DHT22;46555;45.620;13.796;2022-08-14T05:58:58;20.90;97.90
35206;DHT22;46555;45.620;13.796;2022-08-14T06:01:24;20.90;97.80
35206;DHT22;46555;45.620;13.796;2022-08-14T06:03:50;21.00;97.80
35206;DHT22;46555;45.620;13.796;2022-08-14T06:06:17;21.00;97.40
35206;DHT22;46555;45.620;13.796;2022-08-14T06:08:43;21.10;97.40
35206;DHT22;46555;45.620;13.796;2022-08-14T06:11:09;21.30;97.50
35206;DHT22;46555;45.620;13.796;2022-08-14T06:13:39;21.40;97.10
35206;DHT22;46555;45.620;13.796;2022-08-14T06:16:06;21.50;96.70
35206;DHT22;46555;45.620;13.796;2022-08-14T06:18:32;21.60;96.70
35206;DHT22;46555;45.620;13.796;2022-08-14T06:21:03;21.70;96.70
35206;DHT22;46555;45.620;13.796;2022-08-14T06:23:28;21.70;96.50
35206;DHT22;46555;45.620;13.796;2022-08-14T06:25:54;21.90;96.50
35206;DHT22;46555;45.620;13.796;2022-08-14T06:28:22;21.90;96.50
35206;DHT22;46555;45.620;13.796;2022-08-14T06:30:48;22.00;96.30
35206;DHT22;46555;45.620;13.796;2022-08-14T06:33:17;22.10;96.20
35206;DHT22;46555;45.620;13.796;2022-08-14T06:35:44;22.20;96.10
35206;DHT22;46555;45.620;13.796;2022-08-14T06:38:18;22.30;96.00
35206;DHT22;46555;45.620;13.796;2022-08-14T06:40:44;22.40;95.80
35206;DHT22;46555;45.620;13.796;2022-08-14T06:43:11;22.50;95.60
35206;DHT22;46555;45.620;13.796;2022-08-14T06:45:39;22.60;95.70
35206;DHT22;46555;45.620;13.796;2022-08-14T06:48:16;22.70;95.60
35206;DHT22;46555;45.620;13.796;2022-08-14T06:50:42;22.70;95.60
35206;DHT22;46555;45.620;13.796;2022-08-14T06:53:09;22.80;95.80
35206;DHT22;46555;45.620;13.796;2022-08-14T06:55:34;22.90;95.50
35206;DHT22;46555;45.620;13.796;2022-08-14T06:58:00;22.90;95.00
35206;DHT22;46555;45.620;13.796;2022-08-14T07:00:28;22.90;95.20
35206;DHT22;46555;45.620;13.796;2022-08-14T07:02:54;23.00;95.40
35206;DHT22;46555;45.620;13.796;2022-08-14T07:05:39;23.00;95.40
35206;DHT22;46555;45.620;13.796;2022-08-14T07:08:16;23.00;94.90
35206;DHT22;46555;45.620;13.796;2022-08-14T07:10:44;23.00;94.40
35206;DHT22;46555;45.620;13.796;2022-08-14T07:13:11;23.00;94.30
35206;DHT22;46555;45.620;13.796;2022-08-14T07:15:37;23.10;95.20
35206;DHT22;46555;45.620;13.796;2022-08-14T07:18:04;23.10;95.10
35206;DHT22;46555;45.620;13.796;2022-08-14T07:20:30;23.20;95.10
35206;DHT22;46555;45.620;13.796;2022-08-14T07:22:56;23.20;94.40
35206;DHT22;46555;45.620;13.796;2022-08-14T07:25:23;23.30;94.50
35206;DHT22;46555;45.620;13.796;2022-08-14T07:27:50;23.30;94.30
35206;DHT22;46555;45.620;13.796;2022-08-14T07:30:16;23.40;93.70
35206;DHT22;46555;45.620;13.796;2022-08-14T07:32:42;23.50;93.30
35206;DHT22;46555;45.620;13.796;2022-08-14T07:35:08;23.50;92.80
35206;DHT22;46555;45.620;13.796;2022-08-14T07:37:33;23.60;90.90
35206;DHT22;46555;45.620;13.796;2022-08-14T07:40:03;23.60;91.30
35206;DHT22;46555;45.620;13.796;2022-08-14T07:42:30;23.70;91.60
35206;DHT22;46555;45.620;13.796;2022-08-14T07:44:58;23.70;91.20
35206;DHT22;46555;45.620;13.796;2022-08-14T07:47:24;23.90;90.90
35206;DHT22;46555;45.620;13.796;2022-08-14T07:50:11;23.90;90.50
35206;DHT22;46555;45.620;13.796;2022-08-14T07:52:37;24.00;90.80
35206;DHT22;46555;45.620;13.796;2022-08-14T07:55:04;24.00;91.20
35206;DHT22;46555;45.620;13.796;2022-08-14T07:57:30;24.10;88.90
35206;DHT22;46555;45.620;13.796;2022-08-14T07:59:56;24.10;89.80
35206;DHT22;46555;45.620;13.796;2022-08-14T08:02:22;24.20;90.60
35206;DHT22;46555;45.620;13.796;2022-08-14T08:04:52;24.30;89.70
35206;DHT22;46555;45.620;13.796;2022-08-14T08:07:25;24.30;89.10
35206;DHT22;46555;45.620;13.796;2022-08-14T08:09:55;24.40;89.40
35206;DHT22;46555;45.620;13.796;2022-08-14T08:12:24;24.40;87.90
35206;DHT22;46555;45.620;13.796;2022-08-14T08:14:50;24.30;89.00
35206;DHT22;46555;45.620;13.796;2022-08-14T08:17:17;24.30;89.10
35206;DHT22;46555;45.620;13.796;2022-08-14T08:19:45;24.30;89.80
35206;DHT22;46555;45.620;13.796;2022-08-14T08:22:12;24.30;90.30
35206;DHT22;46555;45.620;13.796;2022-08-14T08:24:38;24.30;90.30
35206;DHT22;46555;45.620;13.796;2022-08-14T08:27:17;24.30;90.80
35206;DHT22;46555;45.620;13.796;2022-08-14T08:29:42;24.40;89.60
35206;DHT22;46555;45.620;13.796;2022-08-14T08:32:08;24.40;90.50
35206;DHT22;46555;45.620;13.796;2022-08-14T08:34:46;24.50;90.20
35206;DHT22;46555;45.620;13.796;2022-08-14T08:37:13;24.60;90.00
35206;DHT22;46555;45.620;13.796;2022-08-14T08:39:47;24.70;88.60
35206;DHT22;46555;45.620;13.796;2022-08-14T08:42:24;24.70;89.20
35206;DHT22;46555;45.620;13.796;2022-08-14T08:44:54;24.80;88.90
35206;DHT22;46555;45.620;13.796;2022-08-14T08:47:19;24.90;88.00
35206;DHT22;46555;45.620;13.796;2022-08-14T08:49:45;24.80;87.50
35206;DHT22;46555;45.620;13.796;2022-08-14T08:52:11;24.70;87.80
35206;DHT22;46555;45.620;13.796;2022-08-14T08:54:37;24.70;87.60
35206;DHT22;46555;45.620;13.796;2022-08-14T08:57:10;24.80;87.50
35206;DHT22;46555;45.620;13.796;2022-08-14T08:59:37;24.80;88.10
35206;DHT22;46555;45.620;13.796;2022-08-14T09:02:05;24.90;88.20
35206;DHT22;46555;45.620;13.796;2022-08-14T09:04:36;24.90;87.50
35206;DHT22;46555;45.620;13.796;2022-08-14T09:07:04;24.90;87.70
35206;DHT22;46555;45.620;13.796;2022-08-14T09:09:31;24.90;87.90
35206;DHT22;46555;45.620;13.796;2022-08-14T09:11:59;25.00;87.70
35206;DHT22;46555;45.620;13.796;2022-08-14T09:14:28;25.00;87.80
35206;DHT22;46555;45.620;13.796;2022-08-14T09:16:56;24.80;88.30
35206;DHT22;46555;45.620;13.796;2022-08-14T09:19:22;24.90;89.20
35206;DHT22;46555;45.620;13.796;2022-08-14T09:21:48;24.90;85.80
35206;DHT22;46555;45.620;13.796;2022-08-14T09:24:14;24.90;87.00
35206;DHT22;46555;45.620;13.796;2022-08-14T09:26:41;25.00;87.40
35206;DHT22;46555;45.620;13.796;2022-08-14T09:29:08;25.00;87.40
35206;DHT22;46555;45.620;13.796;2022-08-14T09:31:37;24.90;88.20
35206;DHT22;46555;45.620;13.796;2022-08-14T09:43:01;25.20;86.30
35206;DHT22;46555;45.620;13.796;2022-08-14T09:45:41;25.20;83.80
35206;DHT22;46555;45.620;13.796;2022-08-14T09:48:17;25.20;85.00
35206;DHT22;46555;45.620;13.796;2022-08-14T09:50:50;25.10;87.10
35206;DHT22;46555;45.620;13.796;2022-08-14T09:53:38;25.20;87.20
35206;DHT22;46555;45.620;13.796;2022-08-14T09:56:06;25.20;86.70
35206;DHT22;46555;45.620;13.796;2022-08-14T09:58:38;25.10;86.80
35206;DHT22;46555;45.620;13.796;2022-08-14T10:01:12;25.10;86.10
35206;DHT22;46555;45.620;13.796;2022-08-14T10:03:48;25.10;85.40
35206;DHT22;46555;45.620;13.796;2022-08-14T10:06:17;25.00;85.50
35206;DHT22;46555;45.620;13.796;2022-08-14T10:09:04;24.90;87.00
35206;DHT22;46555;45.620;13.796;2022-08-14T10:11:32;25.00;87.00
35206;DHT22;46555;45.620;13.796;2022-08-14T10:14:16;25.10;88.60
35206;DHT22;46555;45.620;13.796;2022-08-14T10:16:49;25.20;88.90
35206;DHT22;46555;45.620;13.796;2022-08-14T10:19:22;25.30;90.00
35206;DHT22;46555;45.620;13.796;2022-08-14T10:24:24;25.50;90.30
35206;DHT22;46555;45.620;13.796;2022-08-14T10:26:57;25.30;90.50
35206;DHT22;46555;45.620;13.796;2022-08-14T10:29:35;25.30;91.50
35206;DHT22;46555;45.620;13.796;2022-08-14T10:32:03;25.30;91.80
35206;DHT22;46555;45.620;13.796;2022-08-14T10:34:37;25.20;91.50
35206;DHT22;46555;45.620;13.796;2022-08-14T10:37:09;25.10;91.30
35206;DHT22;46555;45.620;13.796;2022-08-14T10:39:37;25.10;91.20
35206;DHT22;46555;45.620;13.796;2022-08-14T10:44:43;25.40;89.80
35206;DHT22;46555;45.620;13.796;2022-08-14T10:47:14;25.40;88.80
35206;DHT22;46555;45.620;13.796;2022-08-14T10:49:58;25.30;90.10
35206;DHT22;46555;45.620;13.796;2022-08-14T10:52:30;25.40;90.30
35206;DHT22;46555;45.620;13.796;2022-08-14T10:55:07;25.30;90.00
35206;DHT22;46555;45.620;13.796;2022-08-14T10:57:44;25.30;89.60
35206;DHT22;46555;45.620;13.796;2022-08-14T11:00:14;25.30;88.70
35206;DHT22;46555;45.620;13.796;2022-08-14T11:02:41;25.40;88.10
35206;DHT22;46555;45.620;13.796;2022-08-14T11:05:11;25.50;89.20
35206;DHT22;46555;45.620;13.796;2022-08-14T11:10:47;25.40;90.00
35206;DHT22;46555;45.620;13.796;2022-08-14T11:13:19;25.40;90.10
35206;DHT22;46555;45.620;13.796;2022-08-14T11:15:46;25.40;90.20
35206;DHT22;46555;45.620;13.796;2022-08-14T11:18:13;25.40;90.80
35206;DHT22;46555;45.620;13.796;2022-08-14T11:20:48;25.50;90.60
35206;DHT22;46555;45.620;13.796;2022-08-14T11:23:15;25.50;90.40
35206;DHT22;46555;45.620;13.796;2022-08-14T11:25:44;25.50;89.10
35206;DHT22;46555;45.620;13.796;2022-08-14T11:28:12;25.60;89.50
35206;DHT22;46555;45.620;13.796;2022-08-14T11:30:43;25.80;90.20
35206;DHT22;46555;45.620;13.796;2022-08-14T11:33:11;25.90;90.20
35206;DHT22;46555;45.620;13.796;2022-08-14T11:35:37;26.00;89.80
35206;DHT22;46555;45.620;13.796;2022-08-14T11:38:06;26.10;90.10
35206;DHT22;46555;45.620;13.796;2022-08-14T11:40:36;26.20;87.60
35206;DHT22;46555;45.620;13.796;2022-08-14T11:43:05;26.20;85.80
35206;DHT22;46555;45.620;13.796;2022-08-14T11:45:36;26.20;86.90
35206;DHT22;46555;45.620;13.796;2022-08-14T11:48:23;26.40;87.30
35206;DHT22;46555;45.620;13.796;2022-08-14T11:50:50;26.30;84.30
35206;DHT22;46555;45.620;13.796;2022-08-14T11:53:27;26.50;87.30
35206;DHT22;46555;45.620;13.796;2022-08-14T11:56:04;26.40;85.00
35206;DHT22;46555;45.620;13.796;2022-08-14T11:58:33;26.40;83.30
35206;DHT22;46555;45.620;13.796;2022-08-14T12:01:02;26.60;82.10
35206;DHT22;46555;45.620;13.796;2022-08-14T12:03:45;26.50;83.10
35206;DHT22;46555;45.620;13.796;2022-08-14T12:06:13;26.50;84.70
35206;DHT22;46555;45.620;13.796;2022-08-14T12:08:39;26.60;82.70
35206;DHT22;46555;45.620;13.796;2022-08-14T12:11:09;26.60;82.90
35206;DHT22;46555;45.620;13.796;2022-08-14T12:13:38;27.30;82.00
35206;DHT22;46555;45.620;13.796;2022-08-14T12:16:09;28.90;79.90
35206;DHT22;46555;45.620;13.796;2022-08-14T12:18:40;30.40;75.20
35206;DHT22;46555;45.620;13.796;2022-08-14T12:23:43;33.00;68.80
35206;DHT22;46555;45.620;13.796;2022-08-14T12:26:13;33.40;68.40
35206;DHT22;46555;45.620;13.796;2022-08-14T12:28:42;34.20;65.30
35206;DHT22;46555;45.620;13.796;2022-08-14T12:31:16;35.30;64.10
35206;DHT22;46555;45.620;13.796;2022-08-14T12:34:05;35.80;63.00
35206;DHT22;46555;45.620;13.796;2022-08-14T12:36:31;36.10;61.50
35206;DHT22;46555;45.620;13.796;2022-08-14T12:38:58;36.60;60.70
35206;DHT22;46555;45.620;13.796;2022-08-14T12:41:27;37.20;59.60
35206;DHT22;46555;45.620;13.796;2022-08-14T12:44:01;38.10;58.00
35206;DHT22;46555;45.620;13.796;2022-08-14T12:46:39;38.10;57.30
35206;DHT22;46555;45.620;13.796;2022-08-14T12:49:10;38.40;57.60
35206;DHT22;46555;45.620;13.796;2022-08-14T12:51:38;37.90;56.70
35206;DHT22;46555;45.620;13.796;2022-08-14T12:54:15;37.50;57.90
35206;DHT22;46555;45.620;13.796;2022-08-14T12:56:42;36.90;58.80
35206;DHT22;46555;45.620;13.796;2022-08-14T12:59:08;36.30;58.80
35206;DHT22;46555;45.620;13.796;2022-08-14T13:01:35;36.10;59.30
35206;DHT22;46555;45.620;13.796;2022-08-14T13:06:34;36.60;59.20
35206;DHT22;46555;45.620;13.796;2022-08-14T13:09:00;36.70;59.10
35206;DHT22;46555;45.620;13.796;2022-08-14T13:14:03;37.20;59.40
35206;DHT22;46555;45.620;13.796;2022-08-14T13:16:29;37.60;59.00
35206;DHT22;46555;45.620;13.796;2022-08-14T13:18:56;37.40;59.40
35206;DHT22;46555;45.620;13.796;2022-08-14T13:21:26;37.80;58.80
35206;DHT22;46555;45.620;13.796;2022-08-14T13:23:54;37.80;58.70
35206;DHT22;46555;45.620;13.796;2022-08-14T13:26:24;38.00;57.80
35206;DHT22;46555;45.620;13.796;2022-08-14T13:28:50;37.80;57.60
35206;DHT22;46555;45.620;13.796;2022-08-14T13:31:21;38.60;56.60
35206;DHT22;46555;45.620;13.796;2022-08-14T13:33:49;38.90;55.30
35206;DHT22;46555;45.620;13.796;2022-08-14T13:36:15;39.60;54.00
35206;DHT22;46555;45.620;13.796;2022-08-14T13:38:44;39.90;53.50
35206;DHT22;46555;45.620;13.796;2022-08-14T13:41:14;40.00;54.20
35206;DHT22;46555;45.620;13.796;2022-08-14T13:43:43;39.70;52.30
35206;DHT22;46555;45.620;13.796;2022-08-14T13:46:09;38.90;54.30
35206;DHT22;46555;45.620;13.796;2022-08-14T13:48:35;38.80;56.40
35206;DHT22;46555;45.620;13.796;2022-08-14T13:51:03;38.40;57.30
35206;DHT22;46555;45.620;13.796;2022-08-14T13:53:34;37.80;57.30
35206;DHT22;46555;45.620;13.796;2022-08-14T13:56:01;38.00;57.80
35206;DHT22;46555;45.620;13.796;2022-08-14T13:58:27;37.60;58.30
35206;DHT22;46555;45.620;13.796;2022-08-14T14:00:58;37.20;59.70
35206;DHT22;46555;45.620;13.796;2022-08-14T14:03:24;36.60;59.30
35206;DHT22;46555;45.620;13.796;2022-08-14T14:05:52;35.70;61.90
35206;DHT22;46555;45.620;13.796;2022-08-14T14:08:19;35.00;63.50
35206;DHT22;46555;45.620;13.796;2022-08-14T14:10:46;34.60;65.10
35206;DHT22;46555;45.620;13.796;2022-08-14T14:13:14;34.10;64.40
35206;DHT22;46555;45.620;13.796;2022-08-14T14:15:41;34.00;67.00
35206;DHT22;46555;45.620;13.796;2022-08-14T14:18:07;34.20;66.40
35206;DHT22;46555;45.620;13.796;2022-08-14T14:20:34;33.70;66.80
35206;DHT22;46555;45.620;13.796;2022-08-14T14:23:00;33.10;69.60
35206;DHT22;46555;45.620;13.796;2022-08-14T14:25:26;32.90;68.90
35206;DHT22;46555;45.620;13.796;2022-08-14T14:27:55;32.80;72.00
35206;DHT22;46555;45.620;13.796;2022-08-14T14:30:23;33.00;72.60
35206;DHT22;46555;45.620;13.796;2022-08-14T14:32:51;33.20;71.40
35206;DHT22;46555;45.620;13.796;2022-08-14T14:35:17;33.40;71.00
35206;DHT22;46555;45.620;13.796;2022-08-14T14:37:47;33.30;70.00
35206;DHT22;46555;45.620;13.796;2022-08-14T14:40:15;33.40;71.10
35206;DHT22;46555;45.620;13.796;2022-08-14T14:42:49;33.80;67.90
35206;DHT22;46555;45.620;13.796;2022-08-14T14:45:20;34.00;68.60
35206;DHT22;46555;45.620;13.796;2022-08-14T14:47:51;34.20;68.00
35206;DHT22;46555;45.620;13.796;2022-08-14T14:50:18;34.20;68.20
35206;DHT22;46555;45.620;13.796;2022-08-14T14:52:45;34.00;67.30
35206;DHT22;46555;45.620;13.796;2022-08-14T14:55:12;33.70;67.60
35206;DHT22;46555;45.620;13.796;2022-08-14T14:57:39;34.10;68.20
35206;DHT22;46555;45.620;13.796;2022-08-14T15:00:11;34.60;66.10
35206;DHT22;46555;45.620;13.796;2022-08-14T15:02:49;34.90;65.10
35206;DHT22;46555;45.620;13.796;2022-08-14T15:05:16;34.70;66.40
35206;DHT22;46555;45.620;13.796;2022-08-14T15:07:43;34.90;62.60
35206;DHT22;46555;45.620;13.796;2022-08-14T15:10:12;35.00;64.30
35206;DHT22;46555;45.620;13.796;2022-08-14T15:12:38;35.30;63.70
35206;DHT22;46555;45.620;13.796;2022-08-14T15:15:05;35.70;63.30
35206;DHT22;46555;45.620;13.796;2022-08-14T15:17:31;35.80;62.40
35206;DHT22;46555;45.620;13.796;2022-08-14T15:20:05;35.90;62.10
35206;DHT22;46555;45.620;13.796;2022-08-14T15:22:33;36.10;62.10
35206;DHT22;46555;45.620;13.796;2022-08-14T15:24:59;36.60;61.20
35206;DHT22;46555;45.620;13.796;2022-08-14T15:27:25;37.00;59.30
35206;DHT22;46555;45.620;13.796;2022-08-14T15:29:53;36.80;58.10
35206;DHT22;46555;45.620;13.796;2022-08-14T15:32:19;36.80;59.10
35206;DHT22;46555;45.620;13.796;2022-08-14T15:34:44;36.50;59.00
35206;DHT22;46555;45.620;13.796;2022-08-14T15:37:11;36.30;59.40
35206;DHT22;46555;45.620;13.796;2022-08-14T15:39:37;35.90;59.40
35206;DHT22;46555;45.620;13.796;2022-08-14T15:42:04;35.80;60.00
35206;DHT22;46555;45.620;13.796;2022-08-14T15:44:30;35.60;59.10
35206;DHT22;46555;45.620;13.796;2022-08-14T15:46:58;35.40;59.10
35206;DHT22;46555;45.620;13.796;2022-08-14T15:49:25;35.00;58.90
35206;DHT22;46555;45.620;13.796;2022-08-14T15:51:56;34.70;58.50